Time;durP1;ratioP1;P1;durP2;ratioP2;P2;SDS_P1;SDS_P2;PMS_P1;PMS_P2;Temp;Humidity;BMP_temperature;BMP_pressure;BME280_temperature;BME280_humidity;BME280_pressure;Samples;Min_cycle;Max_cycle;Signal;HPM_P1;HPM_P2
2023/05/05 00:00:03;;;;;;;;;;;;;;;17.21;61.34;101250.41;5019976;28;19921;-83
2023/05/05 00:02:54;;;;;;;;;;;;;;;17.20;61.41;101248.78;5019889;28;19918;-83
2023/05/05 00:05:44;;;;;;;;;;;;;;;17.27;61.05;101248.22;5021194;28;20564;-83
2023/05/05 00:08:36;;;;;;;;;;;;;;;17.18;61.32;101250.28;5023685;28;19917;-82
2023/05/05 00:11:25;;;;;;;;;;;;;;;17.15;61.18;101243.53;5018439;28;19917;-82
2023/05/05 00:14:17;;;;;;;;;;;;;;;17.06;61.60;101251.13;5018820;28;19918;-82
2023/05/05 00:17:09;;;;;;;;;;;;;;;17.10;61.31;101241.03;5022760;28;19917;-82
2023/05/05 00:20:01;;;;;;;;;;;;;;;17.07;61.23;101238.94;5021230;28;19918;-82
2023/05/05 00:22:53;;;;;;;;;;;;;;;17.07;61.43;101239.75;5018510;28;19917;-82
2023/05/05 00:25:45;;;;;;;;;;;;;;;17.03;61.44;101240.78;5022254;28;19921;-81
2023/05/05 00:28:36;;;;;;;;;;;;;;;16.95;61.89;101242.53;5020139;28;19917;-82
2023/05/05 00:31:28;;;;;;;;;;;;;;;16.88;61.91;101241.50;5017875;28;19925;-82
2023/05/05 00:34:18;;;;;;;;;;;;;;;16.88;61.84;101234.06;5021294;28;19918;-82
2023/05/05 00:37:07;;;;;;;;;;;;;;;16.86;61.88;101232.81;5018148;28;19918;-82
2023/05/05 00:39:59;;;;;;;;;;;;;;;16.84;62.05;101235.09;5022241;28;20380;-82
2023/05/05 00:42:49;;;;;;;;;;;;;;;16.76;62.09;101225.81;5018815;28;19917;-82
2023/05/05 00:45:41;;;;;;;;;;;;;;;16.74;62.08;101235.56;5018431;28;19921;-83
2023/05/05 00:48:33;;;;;;;;;;;;;;;16.78;62.08;101226.28;5021813;28;19917;-83
2023/05/05 00:51:26;;;;;;;;;;;;;;;16.79;61.85;101222.41;5018276;28;19925;-83
2023/05/05 00:54:18;;;;;;;;;;;;;;;16.78;61.97;101225.47;5019506;28;19917;-83
2023/05/05 00:57:12;;;;;;;;;;;;;;;16.71;62.09;101217.81;5022898;28;19918;-83
2023/05/05 01:00:04;;;;;;;;;;;;;;;16.64;62.28;101221.16;5020470;28;19922;-83
2023/05/05 01:02:56;;;;;;;;;;;;;;;16.57;62.02;101214.59;5020039;28;19917;-83
2023/05/05 01:06:09;;;;;;;;;;;;;;;16.64;62.61;101217.59;5020677;28;19921;-83
2023/05/05 01:09:16;;;;;;;;;;;;;;;16.53;62.79;101211.72;5021573;28;19933;-83
2023/05/05 01:12:10;;;;;;;;;;;;;;;16.47;63.08;101204.88;5017543;28;19917;-82
2023/05/05 01:15:15;;;;;;;;;;;;;;;16.48;63.27;101206.47;5017755;28;19921;-83
2023/05/05 01:18:15;;;;;;;;;;;;;;;16.42;63.83;101196.84;5019795;28;19917;-82
2023/05/05 01:21:25;;;;;;;;;;;;;;;16.44;63.50;101199.25;5017159;28;19918;-82
2023/05/05 01:24:27;;;;;;;;;;;;;;;16.46;63.49;101202.44;5020466;28;19921;-83
2023/05/05 01:27:20;;;;;;;;;;;;;;;16.42;63.43;101198.78;5017820;28;19917;-83
2023/05/05 01:30:10;;;;;;;;;;;;;;;16.38;63.75;101197.88;5020998;28;19917;-83
2023/05/05 01:33:04;;;;;;;;;;;;;;;16.27;64.08;101195.59;5017011;28;19918;-83
2023/05/05 01:36:04;;;;;;;;;;;;;;;16.34;63.51;101197.78;5022216;28;19917;-83
2023/05/05 01:38:57;;;;;;;;;;;;;;;16.33;63.90;101198.09;5019851;28;20404;-83
2023/05/05 01:41:50;;;;;;;;;;;;;;;16.18;64.17;101196.84;5018864;28;19917;-83
2023/05/05 01:44:42;;;;;;;;;;;;;;;16.15;64.46;101197.53;5021115;28;19922;-83
2023/05/05 01:47:32;;;;;;;;;;;;;;;16.23;64.34;101199.34;5016908;28;19917;-83
2023/05/05 01:50:23;;;;;;;;;;;;;;;16.29;63.66;101195.25;5017046;28;19922;-83
2023/05/05 01:53:16;;;;;;;;;;;;;;;16.20;63.41;101189.84;5017808;28;19917;-83
2023/05/05 01:56:07;;;;;;;;;;;;;;;16.15;63.94;101195.56;5018322;28;19918;-83
2023/05/05 01:59:00;;;;;;;;;;;;;;;16.13;63.70;101200.59;5021390;28;19932;-83
2023/05/05 02:01:52;;;;;;;;;;;;;;;16.09;64.22;101194.19;5019411;28;20400;-83
2023/05/05 02:04:45;;;;;;;;;;;;;;;16.23;64.58;101193.88;5019955;28;20397;-83
2023/05/05 02:07:37;;;;;;;;;;;;;;;16.22;63.98;101182.09;5020191;28;19917;-83
2023/05/05 02:10:29;;;;;;;;;;;;;;;16.18;64.13;101194.91;5022097;28;19918;-83
2023/05/05 02:13:19;;;;;;;;;;;;;;;16.30;63.93;101185.09;5021760;28;19917;-83
2023/05/05 02:16:12;;;;;;;;;;;;;;;16.27;63.79;101194.78;5023097;28;19917;-83
2023/05/05 02:19:03;;;;;;;;;;;;;;;16.30;63.54;101193.31;5024176;28;20095;-83
2023/05/05 02:21:55;;;;;;;;;;;;;;;16.27;63.61;101189.28;5025540;28;19936;-83
2023/05/05 02:24:47;;;;;;;;;;;;;;;16.23;63.52;101182.91;5023215;28;19925;-81
2023/05/05 02:27:38;;;;;;;;;;;;;;;16.26;64.15;101183.00;5021632;28;19917;-82
2023/05/05 02:30:31;;;;;;;;;;;;;;;16.29;63.51;101184.28;5024398;28;19917;-82
2023/05/05 02:33:24;;;;;;;;;;;;;;;16.26;63.52;101182.19;5022775;28;19917;-82
2023/05/05 02:36:20;;;;;;;;;;;;;;;16.29;63.33;101178.78;5025438;28;19921;-82
2023/05/05 02:39:18;;;;;;;;;;;;;;;16.23;63.36;101175.47;5023405;28;19921;-82
2023/05/05 02:42:11;;;;;;;;;;;;;;;16.26;63.31;101185.75;5020888;28;19918;-83
2023/05/05 02:45:05;;;;;;;;;;;;;;;16.25;63.22;101177.88;5023769;28;19922;-83
2023/05/05 02:47:59;;;;;;;;;;;;;;;16.24;63.69;101174.31;5021435;28;19917;-81
2023/05/05 02:50:51;;;;;;;;;;;;;;;16.21;63.59;101179.69;5018671;28;20385;-81
2023/05/05 02:53:47;;;;;;;;;;;;;;;16.21;63.40;101175.00;5023060;28;19918;-82
2023/05/05 02:56:52;;;;;;;;;;;;;;;16.22;63.46;101176.59;5023259;28;19918;-85
2023/05/05 02:59:57;;;;;;;;;;;;;;;16.13;63.53;101180.59;5027138;28;19921;-78
2023/05/05 03:02:59;;;;;;;;;;;;;;;16.14;63.36;101182.22;5014339;28;19918;-77
2023/05/05 03:05:54;;;;;;;;;;;;;;;16.15;63.76;101170.88;5018283;28;19921;-76
2023/05/05 03:08:50;;;;;;;;;;;;;;;16.16;63.46;101177.97;5016023;28;20544;-77
2023/05/05 03:11:44;;;;;;;;;;;;;;;16.09;63.31;101169.50;5013319;28;20147;-76
2023/05/05 03:14:40;;;;;;;;;;;;;;;16.08;63.72;101164.34;5016614;28;19917;-77
2023/05/05 03:17:32;;;;;;;;;;;;;;;16.12;63.85;101166.06;5014329;28;19918;-76
2023/05/05 03:20:28;;;;;;;;;;;;;;;16.45;64.66;101167.94;5018008;28;19921;-76
2023/05/05 03:23:19;;;;;;;;;;;;;;;16.32;62.87;101164.38;5015068;28;19917;-74
2023/05/05 03:26:11;;;;;;;;;;;;;;;16.22;63.09;101165.63;5013411;28;19922;-74
2023/05/05 03:29:04;;;;;;;;;;;;;;;16.13;63.38;101167.69;5016815;28;19921;-74
2023/05/05 03:31:56;;;;;;;;;;;;;;;16.09;63.53;101160.47;5014716;28;19917;-74
2023/05/05 03:34:48;;;;;;;;;;;;;;;15.98;63.53;101171.09;5017834;28;19964;-74
2023/05/05 03:37:40;;;;;;;;;;;;;;;16.00;63.77;101163.31;5016146;28;19918;-74
2023/05/05 03:40:32;;;;;;;;;;;;;;;16.00;63.53;101166.03;5013657;28;19918;-74
2023/05/05 03:43:24;;;;;;;;;;;;;;;16.00;63.91;101166.03;5016954;28;19929;-74
2023/05/05 03:46:16;;;;;;;;;;;;;;;15.93;64.16;101167.75;5015000;28;20285;-74
2023/05/05 03:49:08;;;;;;;;;;;;;;;15.93;63.99;101159.53;5013257;28;19917;-74
2023/05/05 03:52:01;;;;;;;;;;;;;;;15.96;64.06;101162.38;5015673;28;20296;-74
2023/05/05 03:54:52;;;;;;;;;;;;;;;15.95;64.05;101160.78;5014082;28;19921;-74
2023/05/05 03:57:44;;;;;;;;;;;;;;;15.82;64.38;101161.91;5017712;28;19917;-74
2023/05/05 04:00:38;;;;;;;;;;;;;;;15.71;64.51;101160.72;5016292;28;19918;-74
2023/05/05 04:03:31;;;;;;;;;;;;;;;15.67;64.46;101154.31;5013007;28;19917;-74
2023/05/05 04:06:23;;;;;;;;;;;;;;;15.68;64.59;101144.97;5016782;28;19921;-74
2023/05/05 04:09:12;;;;;;;;;;;;;;;15.66;64.79;101152.72;5014537;28;19921;-74
2023/05/05 04:12:05;;;;;;;;;;;;;;;15.65;64.78;101159.34;5012431;28;19921;-75
2023/05/05 04:14:57;;;;;;;;;;;;;;;15.68;64.71;101155.94;5013034;28;19922;-75
2023/05/05 04:17:46;;;;;;;;;;;;;;;15.63;65.02;101147.94;5013884;28;19921;-75
2023/05/05 04:20:38;;;;;;;;;;;;;;;15.69;64.79;101154.81;5017563;28;19917;-75
2023/05/05 04:23:29;;;;;;;;;;;;;;;15.67;64.61;101159.81;5014584;28;19918;-75
2023/05/05 04:26:21;;;;;;;;;;;;;;;15.75;65.53;101156.16;5012518;28;19922;-74
2023/05/05 04:29:14;;;;;;;;;;;;;;;15.70;64.93;101156.38;5016443;28;19918;-75
2023/05/05 04:32:03;;;;;;;;;;;;;;;15.62;64.78;101154.53;5014365;28;19917;-75
2023/05/05 04:34:55;;;;;;;;;;;;;;;15.66;64.92;101160.94;5007839;28;19921;-75
2023/05/05 04:37:47;;;;;;;;;;;;;;;15.70;64.51;101159.94;5011399;28;19917;-74
2023/05/05 04:40:39;;;;;;;;;;;;;;;15.77;64.76;101162.13;5006662;28;20385;-75
2023/05/05 04:43:28;;;;;;;;;;;;;;;15.75;64.82;101169.88;5016693;28;19921;-75
2023/05/05 04:46:20;;;;;;;;;;;;;;;15.80;64.91;101159.50;5015050;28;19921;-74
2023/05/05 04:49:10;;;;;;;;;;;;;;;15.71;65.25;101158.00;5012959;28;19918;-74
2023/05/05 04:52:02;;;;;;;;;;;;;;;15.73;65.03;101153.78;5014852;28;19917;-74
2023/05/05 04:54:54;;;;;;;;;;;;;;;15.77;64.91;101165.66;5014247;28;20393;-75
2023/05/05 04:57:46;;;;;;;;;;;;;;;15.81;64.89;101163.03;5012435;28;19917;-75
2023/05/05 05:00:38;;;;;;;;;;;;;;;15.86;64.97;101160.09;5012547;28;20288;-74
2023/05/05 05:03:30;;;;;;;;;;;;;;;15.87;65.01;101167.19;5013572;28;19917;-75
2023/05/05 05:06:22;;;;;;;;;;;;;;;15.75;65.82;101167.94;5012541;28;19925;-75
2023/05/05 05:09:12;;;;;;;;;;;;;;;15.79;66.00;101168.88;5015228;28;20311;-75
2023/05/05 05:12:04;;;;;;;;;;;;;;;15.76;65.40;101168.75;5013367;28;19918;-76
2023/05/05 05:14:57;;;;;;;;;;;;;;;15.17;69.07;101168.94;5016156;28;20384;-75
2023/05/05 05:17:49;;;;;;;;;;;;;;;15.51;68.64;101176.09;5015203;28;19917;-76
2023/05/05 05:20:41;;;;;;;;;;;;;;;15.75;68.25;101183.59;5008696;28;19917;-75
2023/05/05 05:23:33;;;;;;;;;;;;;;;16.00;66.60;101181.72;5008541;28;19918;-75
2023/05/05 05:26:23;;;;;;;;;;;;;;;16.11;66.59;101180.13;4993784;28;19922;-75
2023/05/05 05:29:15;;;;;;;;;;;;;;;16.20;67.19;101180.84;4992577;28;19922;-76
2023/05/05 05:32:05;;;;;;;;;;;;;;;16.35;66.99;101182.91;5009168;28;19917;-75
2023/05/05 05:34:57;;;;;;;;;;;;;;;16.45;66.55;101189.88;5012664;28;19918;-75
2023/05/05 05:37:49;;;;;;;;;;;;;;;16.57;66.16;101184.38;5016142;28;19917;-75
2023/05/05 05:40:41;;;;;;;;;;;;;;;16.67;65.73;101183.94;5017705;28;20288;-75
2023/05/05 05:43:33;;;;;;;;;;;;;;;16.78;65.10;101182.34;5016026;28;20258;-75
2023/05/05 05:46:25;;;;;;;;;;;;;;;16.87;65.34;101183.00;5018993;28;19925;-75
2023/05/05 05:49:15;;;;;;;;;;;;;;;16.93;65.55;101184.38;5017110;28;19921;-76
2023/05/05 05:52:07;;;;;;;;;;;;;;;17.12;65.71;101185.72;5014931;28;20376;-75
2023/05/05 05:54:57;;;;;;;;;;;;;;;17.29;64.76;101186.22;5018287;28;20381;-76
2023/05/05 05:57:49;;;;;;;;;;;;;;;17.33;64.94;101184.38;5015862;28;19918;-75
2023/05/05 06:00:41;;;;;;;;;;;;;;;17.38;64.11;101188.81;5019648;28;19917;-76
2023/05/05 06:03:33;;;;;;;;;;;;;;;17.53;63.05;101188.06;5017391;28;19917;-76
2023/05/05 06:06:25;;;;;;;;;;;;;;;17.63;62.68;101190.34;5015315;28;19925;-76
2023/05/05 06:09:17;;;;;;;;;;;;;;;17.78;62.33;101197.03;5019254;28;20304;-76
2023/05/05 06:12:09;;;;;;;;;;;;;;;17.83;62.46;101197.59;5016323;28;19918;-75
2023/05/05 06:15:01;;;;;;;;;;;;;;;17.93;62.37;101204.53;5014336;28;19917;-76
2023/05/05 06:17:53;;;;;;;;;;;;;;;18.05;62.49;101198.16;5018105;28;19918;-75
2023/05/05 06:20:45;;;;;;;;;;;;;;;18.31;61.30;101202.00;5015976;28;19921;-75
2023/05/05 06:23:37;;;;;;;;;;;;;;;18.42;60.53;101202.25;5019292;28;19921;-76
2023/05/05 06:26:29;;;;;;;;;;;;;;;18.45;60.20;101198.78;5016822;28;20387;-76
2023/05/05 06:29:21;;;;;;;;;;;;;;;18.51;60.62;101197.34;5015887;28;20448;-76
2023/05/05 06:32:11;;;;;;;;;;;;;;;18.76;60.82;101207.03;5017772;28;19921;-75
2023/05/05 06:35:02;;;;;;;;;;;;;;;18.76;59.95;101207.03;5017225;28;19917;-76
2023/05/05 06:37:52;;;;;;;;;;;;;;;18.80;58.84;101201.59;5014582;28;19918;-76
2023/05/05 06:40:41;;;;;;;;;;;;;;;18.81;58.35;101205.97;5017741;28;19936;-76
2023/05/05 06:43:33;;;;;;;;;;;;;;;18.84;58.37;101207.22;5016179;28;19917;-75
2023/05/05 06:46:27;;;;;;;;;;;;;;;18.81;58.14;101197.69;5019180;28;19933;-76
2023/05/05 06:49:19;;;;;;;;;;;;;;;18.82;58.15;101198.50;5017474;28;19917;-76
2023/05/05 06:52:11;;;;;;;;;;;;;;;18.93;57.89;101205.06;5015340;28;19921;-76
2023/05/05 06:55:03;;;;;;;;;;;;;;;18.94;57.48;101203.91;5018876;28;19917;-76
2023/05/05 06:57:55;;;;;;;;;;;;;;;18.91;57.80;101207.34;5017073;28;19917;-76
2023/05/05 07:00:46;;;;;;;;;;;;;;;18.93;57.47;101207.81;5014812;28;19918;-77
2023/05/05 07:03:38;;;;;;;;;;;;;;;18.95;57.71;101208.22;5018448;28;19921;-76
2023/05/05 07:06:28;;;;;;;;;;;;;;;18.97;57.33;101209.50;5016181;28;19922;-75
2023/05/05 07:09:20;;;;;;;;;;;;;;;19.04;57.31;101198.63;5019650;28;19918;-76
2023/05/05 07:12:11;;;;;;;;;;;;;;;19.04;56.99;101203.34;5014109;28;19926;-75
2023/05/05 07:15:03;;;;;;;;;;;;;;;19.08;57.34;101210.53;5014490;28;19918;-75
2023/05/05 07:17:55;;;;;;;;;;;;;;;19.18;56.96;101201.69;5018938;28;19921;-75
2023/05/05 07:20:47;;;;;;;;;;;;;;;19.34;56.16;101209.91;5016517;28;19917;-75
2023/05/05 07:23:39;;;;;;;;;;;;;;;19.39;56.16;101208.81;5013914;28;19917;-75
2023/05/05 07:26:28;;;;;;;;;;;;;;;19.62;55.50;101201.41;5018087;28;19921;-75
2023/05/05 07:29:20;;;;;;;;;;;;;;;19.87;54.65;101204.66;5016048;28;19917;-75
2023/05/05 07:32:12;;;;;;;;;;;;;;;20.41;53.28;101210.00;5013838;28;19921;-75
2023/05/05 07:35:04;;;;;;;;;;;;;;;20.60;52.31;101206.34;5016943;28;19918;-75
2023/05/05 07:37:56;;;;;;;;;;;;;;;20.43;52.40;101205.69;5015270;28;19921;-76
2023/05/05 07:40:46;;;;;;;;;;;;;;;20.26;53.39;101206.16;5018571;28;19921;-76
2023/05/05 07:43:35;;;;;;;;;;;;;;;20.22;53.38;101202.53;5016383;28;19918;-75
2023/05/05 07:46:27;;;;;;;;;;;;;;;20.10;53.52;101202.72;5014426;28;19926;-75
2023/05/05 07:49:19;;;;;;;;;;;;;;;19.83;54.24;101203.78;5018061;28;19918;-75
2023/05/05 07:52:11;;;;;;;;;;;;;;;19.76;54.49;101192.63;5015778;28;20384;-75
2023/05/05 07:55:03;;;;;;;;;;;;;;;19.75;54.79;101193.78;5013295;28;19918;-75
2023/05/05 07:57:53;;;;;;;;;;;;;;;19.71;54.69;101196.47;5015738;28;19921;-75
2023/05/05 08:00:42;;;;;;;;;;;;;;;19.69;54.80;101200.78;5014305;28;19917;-75
2023/05/05 08:03:32;;;;;;;;;;;;;;;19.71;55.13;101195.69;5017960;28;19917;-75
2023/05/05 08:06:23;;;;;;;;;;;;;;;19.70;54.65;101199.59;5016091;28;19921;-74
2023/05/05 08:09:15;;;;;;;;;;;;;;;19.71;54.65;101188.19;5014002;28;19922;-76
2023/05/05 08:12:07;;;;;;;;;;;;;;;19.89;54.08;101188.53;5011944;28;19917;-76
2023/05/05 08:14:59;;;;;;;;;;;;;;;19.90;54.83;101190.13;5013057;28;19917;-76
2023/05/05 08:17:54;;;;;;;;;;;;;;;19.93;54.31;101183.88;5012983;28;20008;-76
2023/05/05 08:20:46;;;;;;;;;;;;;;;19.86;54.05;101186.50;5008264;28;19921;-76
2023/05/05 08:23:36;;;;;;;;;;;;;;;19.93;54.08;101192.16;5014319;28;20074;-77
2023/05/05 08:26:25;;;;;;;;;;;;;;;19.87;54.44;101186.13;5018047;28;19921;-76
2023/05/05 08:29:17;;;;;;;;;;;;;;;19.98;54.04;101189.09;5013656;28;19917;-76
2023/05/05 08:32:06;;;;;;;;;;;;;;;19.92;54.20;101194.09;5011374;28;19917;-76
2023/05/05 08:34:58;;;;;;;;;;;;;;;19.98;53.98;101184.38;5014343;28;20308;-76
2023/05/05 08:37:52;;;;;;;;;;;;;;;20.11;53.42;101184.19;5015794;28;19918;-77
2023/05/05 08:40:44;;;;;;;;;;;;;;;19.99;53.66;101188.72;5012594;28;20297;-75
2023/05/05 08:43:35;;;;;;;;;;;;;;;20.08;53.39;101188.47;5016319;28;19921;-76
2023/05/05 08:46:27;;;;;;;;;;;;;;;20.19;52.28;101186.69;5014444;28;19925;-76
2023/05/05 08:49:20;;;;;;;;;;;;;;;20.59;51.28;101185.41;5018107;28;20287;-76
2023/05/05 08:52:12;;;;;;;;;;;;;;;20.50;51.30;101191.19;5015632;28;19917;-76
2023/05/05 08:55:07;;;;;;;;;;;;;;;20.51;50.97;101192.00;5002338;28;19948;-77
2023/05/05 08:57:59;;;;;;;;;;;;;;;20.80;48.67;101188.47;5017143;28;19918;-76
2023/05/05 09:00:49;;;;;;;;;;;;;;;20.60;49.82;101187.00;5012711;28;19918;-76
2023/05/05 09:03:41;;;;;;;;;;;;;;;20.86;51.14;101190.56;5014347;28;19918;-84
2023/05/05 09:06:30;;;;;;;;;;;;;;;20.29;52.75;101191.59;5020419;28;19922;-82
2023/05/05 09:09:22;;;;;;;;;;;;;;;20.13;53.01;101193.69;5018780;28;19918;-80
2023/05/05 09:12:14;;;;;;;;;;;;;;;19.97;54.05;101190.25;5019381;28;19925;-80
2023/05/05 09:15:06;;;;;;;;;;;;;;;19.97;52.31;101190.25;5024706;28;20400;-79
2023/05/05 09:17:57;;;;;;;;;;;;;;;20.03;50.23;101186.03;5022023;28;19917;-79
2023/05/05 09:20:46;;;;;;;;;;;;;;;19.96;52.53;101189.44;5026417;28;19921;-80
2023/05/05 09:23:38;;;;;;;;;;;;;;;19.91;54.36;101186.22;5023704;28;20304;-79
2023/05/05 09:26:32;;;;;;;;;;;;;;;19.87;53.77;101182.56;5021717;28;19922;-79
2023/05/05 09:29:24;;;;;;;;;;;;;;;19.86;53.29;101179.00;5024872;28;19918;-79
2023/05/05 09:32:17;;;;;;;;;;;;;;;19.82;53.19;101172.63;5022858;28;19921;-79
2023/05/05 09:35:09;;;;;;;;;;;;;;;19.80;53.53;101174.97;5020711;28;20289;-79
2023/05/05 09:38:12;;;;;;;;;;;;;;;19.76;52.72;101167.78;5021964;28;19918;-79
2023/05/05 09:41:04;;;;;;;;;;;;;;;19.82;51.17;101166.31;5010435;28;19917;-81
2023/05/05 09:43:53;;;;;;;;;;;;;;;19.92;51.56;101157.41;5020709;28;19918;-79
2023/05/05 09:46:50;;;;;;;;;;;;;;;19.83;51.90;101167.91;5022521;28;19922;-79
2023/05/05 09:49:40;;;;;;;;;;;;;;;19.82;52.20;101161.59;5025399;28;19921;-79
2023/05/05 09:52:32;;;;;;;;;;;;;;;19.82;52.15;101163.53;5018706;28;19918;-79
2023/05/05 09:55:24;;;;;;;;;;;;;;;19.85;51.46;101165.59;5040702;28;19917;-79
2023/05/05 09:58:22;;;;;;;;;;;;;;;19.86;51.44;101167.97;5036239;28;19918;-79
2023/05/05 10:01:22;;;;;;;;;;;;;;;19.86;51.83;101156.16;5013808;28;19917;-78
2023/05/05 10:04:23;;;;;;;;;;;;;;;19.89;51.98;101167.25;5007526;28;19922;-79
2023/05/05 10:07:23;;;;;;;;;;;;;;;20.03;50.37;101155.66;5025134;28;19922;-79
2023/05/05 10:10:16;;;;;;;;;;;;;;;19.93;51.05;101159.03;5011757;28;19918;-79
2023/05/05 10:13:11;;;;;;;10.98;5.22;;;;;;;20.48;46.40;101154.84;4999114;28;20792;-80
2023/05/05 10:16:09;;;;;;;9.23;4.70;;;;;;;21.36;44.59;101155.28;5018133;28;20100;-79
2023/05/05 10:19:03;;;;;;;7.38;5.93;;;;;;;21.98;43.35;101152.78;5010630;28;20053;-81
2023/05/05 10:22:00;;;;;;;8.50;5.45;;;;;;;22.22;42.21;101152.19;5008917;28;20041;-80
2023/05/05 10:25:16;;;;;;;9.00;4.93;;;;;;;22.46;41.65;101150.78;4999873;28;20046;-80
2023/05/05 10:28:11;;;;;;;6.63;4.38;;;;;;;22.67;41.13;101145.41;5008288;28;20045;-80
2023/05/05 10:31:07;;;;;;;7.53;4.93;;;;;;;22.88;40.61;101145.56;5011994;28;20045;-80
2023/05/05 10:34:05;;;;;;;6.22;4.45;;;;;;;22.93;40.55;101139.63;5019732;28;20065;-80
2023/05/05 10:36:58;;;;;;;6.55;4.53;;;;;;;23.06;40.16;101134.53;5016174;28;20409;-79
2023/05/05 10:39:54;;;;;;;6.28;3.95;;;;;;;23.16;40.65;101131.00;5018886;28;20053;-80
2023/05/05 10:42:49;;;;;;;9.50;4.25;;;;;;;23.18;40.56;101133.41;5019648;28;20053;-79
2023/05/05 10:45:45;;;;;;;11.30;4.13;;;;;;;23.26;40.17;101129.47;5018865;28;20408;-80
2023/05/05 10:48:56;;;;;;;15.68;4.68;;;;;;;23.29;40.22;101120.34;5022496;28;20045;-79
2023/05/05 10:52:06;;;;;;;5.63;4.55;;;;;;;23.31;40.11;101120.78;5016857;28;20422;-78
2023/05/05 10:55:19;;;;;;;8.50;4.97;;;;;;;23.35;39.00;101116.00;5019423;28;20048;-79
2023/05/05 10:58:34;;;;;;;7.05;4.97;;;;;;;23.50;39.35;101098.25;5014911;28;20045;-80
2023/05/05 11:01:40;;;;;;;8.90;4.70;;;;;;;23.61;39.51;101104.63;5009471;28;20299;-79
2023/05/05 11:04:31;;;;;;;5.93;4.85;;;;;;;23.67;39.06;101097.44;4999478;28;20057;-80
2023/05/05 11:07:29;;;;;;;5.78;4.50;;;;;;;23.74;39.60;101102.22;5017522;28;20110;-79
2023/05/05 11:10:25;;;;;;;8.52;4.07;;;;;;;23.91;39.19;101093.13;5011385;28;20045;-79
2023/05/05 11:13:23;;;;;;;7.85;4.40;;;;;;;23.98;38.40;101095.09;5016809;28;20049;-79
2023/05/05 11:16:46;;;;;;;6.25;4.00;;;;;;;23.99;38.81;101085.56;5008300;28;20056;-79
2023/05/05 11:19:50;;;;;;;7.15;4.75;;;;;;;24.03;37.54;101086.34;5005213;28;20069;-79
2023/05/05 11:23:08;;;;;;;10.52;4.50;;;;;;;24.15;37.59;101083.19;5007940;28;20045;-79
2023/05/05 11:26:00;;;;;;;6.63;4.45;;;;;;;24.26;38.43;101068.13;5000166;28;20065;-81
2023/05/05 11:29:05;;;;;;;5.72;4.00;;;;;;;24.39;37.78;101071.25;5014385;28;20054;-81
2023/05/05 11:32:16;;;;;;;6.18;4.78;;;;;;;24.46;37.18;101071.25;5007883;28;20408;-81
2023/05/05 11:35:11;;;;;;;5.95;5.03;;;;;;;24.42;37.57;101067.69;5013365;28;20045;-81
2023/05/05 11:38:08;;;;;;;5.97;4.65;;;;;;;24.48;37.18;101073.63;5020710;28;20054;-81
2023/05/05 11:41:18;;;;;;;7.65;3.90;;;;;;;24.51;37.64;101067.25;5018368;28;20065;-80
2023/05/05 11:44:20;;;;;;;10.07;4.35;;;;;;;24.46;38.20;101065.69;5015553;28;20053;-81
2023/05/05 11:47:15;;;;;;;5.80;3.97;;;;;;;24.46;38.31;101059.31;5019065;28;20061;-80
2023/05/05 11:50:20;;;;;;;5.35;4.28;;;;;;;24.57;37.34;101055.34;5016202;28;20049;-81
2023/05/05 11:53:17;;;;;;;4.93;4.05;;;;;;;24.64;37.31;101051.72;5015202;28;20049;-80
2023/05/05 11:56:17;;;;;;;10.05;3.90;;;;;;;24.67;37.04;101048.94;5017302;28;20045;-81
2023/05/05 11:59:15;;;;;;;9.73;4.10;;;;;;;24.60;37.36;101048.94;5020423;28;20127;-81
2023/05/05 12:02:09;;;;;;;6.57;4.38;;;;;;;24.59;37.31;101039.03;5017644;28;20049;-80
2023/05/05 12:05:03;;;;;;;7.53;4.93;;;;;;;24.76;36.47;101036.56;5021176;28;20049;-81
2023/05/05 12:07:59;;;;;;;7.38;4.53;;;;;;;24.83;37.21;101033.78;5012555;28;20528;-80
2023/05/05 12:10:52;;;;;;;7.43;4.68;;;;;;;24.90;36.89;101028.19;5009188;28;20168;-80
2023/05/05 12:13:46;;;;;;;5.40;3.55;;;;;;;24.78;37.26;101034.19;5011286;28;20048;-80
2023/05/05 12:16:40;;;;;;;12.63;4.30;;;;;;;24.74;37.45;101036.97;5003959;28;20048;-80
2023/05/05 12:19:35;;;;;;;10.85;4.35;;;;;;;24.88;36.93;101028.63;5016185;28;20045;-81
2023/05/05 12:22:31;;;;;;;7.20;4.20;;;;;;;24.92;36.03;101029.38;5017379;28;20516;-81
2023/05/05 12:25:26;;;;;;;6.75;4.05;;;;;;;24.96;35.98;101026.56;5020358;28;20064;-81
2023/05/05 12:28:20;;;;;;;5.70;3.67;;;;;;;24.94;36.66;101017.84;5018467;28;20052;-82
2023/05/05 12:31:15;;;;;;;5.93;3.90;;;;;;;24.88;36.40;101017.50;5016006;28;20117;-81
2023/05/05 12:34:16;;;;;;;5.40;4.25;;;;;;;24.97;36.22;101014.25;5019050;28;20044;-81
2023/05/05 12:37:11;;;;;;;5.53;4.07;;;;;;;24.96;36.49;101009.88;5016424;28;20049;-81
2023/05/05 12:40:05;;;;;;;8.45;3.97;;;;;;;25.00;35.84;101013.44;5019535;28;20401;-82
2023/05/05 12:43:00;;;;;;;5.13;3.45;;;;;;;24.96;36.30;101001.53;5015853;28;20045;-81
2023/05/05 12:46:02;;;;;;;6.35;3.03;;;;;;;24.91;35.58;100999.97;5015251;28;20508;-81
2023/05/05 12:49:04;;;;;;;7.25;3.85;;;;;;;24.91;36.02;101004.75;5017711;28;20049;-82
2023/05/05 12:51:56;;;;;;;20.27;4.95;;;;;;;24.81;36.11;100995.22;5015760;28;20048;-81
2023/05/05 12:55:04;;;;;;;4.57;3.30;;;;;;;24.86;37.54;100991.22;5019432;28;20052;-81
2023/05/05 12:58:08;;;;;;;9.15;4.47;;;;;;;24.82;37.02;100987.66;5016158;28;20045;-82
2023/05/05 13:01:15;;;;;;;33.67;5.45;;;;;;;24.88;37.01;100989.66;5018437;28;20041;-82
2023/05/05 13:04:08;;;;;;;4.68;3.95;;;;;;;24.78;36.87;100986.91;5016087;28;20048;-81
2023/05/05 13:07:22;;;;;;;4.88;3.95;;;;;;;24.86;37.58;100980.88;5019516;28;20045;-82
2023/05/05 13:10:16;;;;;;;6.55;3.67;;;;;;;24.96;36.74;100974.50;5009775;28;20524;-80
2023/05/05 13:13:11;;;;;;;4.28;3.17;;;;;;;25.05;36.20;100966.47;5012733;28;20053;-81
2023/05/05 13:16:00;;;;;;;6.43;4.55;;;;;;;25.02;36.40;100966.50;5017550;28;20049;-81
2023/05/05 13:18:55;;;;;;;4.78;3.70;;;;;;;25.16;35.70;100968.41;5015822;28;20524;-81
2023/05/05 13:21:49;;;;;;;6.88;4.07;;;;;;;25.14;35.59;100968.84;5018762;28;20053;-81
2023/05/05 13:24:41;;;;;;;5.88;3.70;;;;;;;25.06;35.56;100958.94;5017114;28;20106;-81
2023/05/05 13:27:36;;;;;;;5.97;2.92;;;;;;;25.06;36.86;100965.28;5013890;28;20053;-81
2023/05/05 13:30:31;;;;;;;4.43;2.67;;;;;;;25.11;36.46;100961.28;5017891;28;20505;-81
2023/05/05 13:33:26;;;;;;;6.55;3.05;;;;;;;25.16;35.65;100958.06;5015655;28;20508;-81
2023/05/05 13:36:20;;;;;;;6.85;3.35;;;;;;;25.20;35.39;100950.47;5019881;28;20049;-80
2023/05/05 13:39:15;;;;;;;5.00;3.45;;;;;;;25.11;35.29;100944.56;5017918;28;20057;-80
2023/05/05 13:42:09;;;;;;;3.20;2.58;;;;;;;25.18;35.08;100950.09;5015530;28;20049;-81
2023/05/05 13:45:04;;;;;;;4.20;2.75;;;;;;;25.24;34.94;100945.69;5012978;28;20049;-81
2023/05/05 13:47:58;;;;;;;5.20;3.05;;;;;;;25.18;34.01;100938.19;5016663;28;20053;-80
2023/05/05 13:50:53;;;;;;;3.88;2.50;;;;;;;25.18;34.45;100940.97;5019936;28;20053;-81
2023/05/05 13:53:48;;;;;;;6.32;2.92;;;;;;;25.21;34.28;100931.78;5017596;28;20041;-80
2023/05/05 13:56:42;;;;;;;3.75;2.15;;;;;;;25.11;35.86;100928.66;5009160;28;20045;-81
2023/05/05 13:59:37;;;;;;;3.95;2.45;;;;;;;24.87;36.08;100924.09;5010518;28;20044;-83
2023/05/05 14:02:32;;;;;;;5.47;2.33;;;;;;;25.45;34.12;100922.41;5012844;28;20072;-85
2023/05/05 14:05:26;;;;;;;4.53;2.63;;;;;;;25.24;36.35;100923.41;5023297;28;20432;-82
2023/05/05 14:08:18;;;;;;;11.57;2.38;;;;;;;24.40;37.56;100914.38;5019945;28;20524;-83
2023/05/05 14:11:13;;;;;;;7.00;2.25;;;;;;;24.48;37.40;100910.34;5018870;28;20052;-82
2023/05/05 14:14:07;;;;;;;10.40;2.63;;;;;;;24.24;38.31;100914.03;5021700;28;20522;-83
2023/05/05 14:17:02;;;;;;;5.60;2.65;;;;;;;24.69;36.87;100907.44;5019988;28;20105;-82
2023/05/05 14:19:57;;;;;;;4.15;2.08;;;;;;;25.12;35.65;100912.78;5023984;28;20049;-81
2023/05/05 14:22:51;;;;;;;12.93;3.53;;;;;;;25.01;34.88;100903.69;5019493;28;20531;-82
2023/05/05 14:25:46;;;;;;;8.75;3.33;;;;;;;25.26;34.99;100909.06;5018794;28;20052;-81